Time;durP1;ratioP1;P1;durP2;ratioP2;P2;SDS_P1;SDS_P2;PMS_P1;PMS_P2;Temp;Humidity;BMP_temperature;BMP_pressure;BME280_temperature;BME280_humidity;BME280_pressure;Samples;Min_cycle;Max_cycle;Signal;HPM_P1;HPM_P2
2023/03/27 00:00:59;;;;;;;2.13;0.60;;;6.00;99.90;;;;;;5089746;28;20428;-70
2023/03/27 00:03:25;;;;;;;1.77;0.77;;;6.00;99.90;;;;;;5089284;28;20421;-70
2023/03/27 00:05:59;;;;;;;0.80;0.80;;;6.00;99.90;;;;;;5089063;28;20416;-70
2023/03/27 00:08:25;;;;;;;1.50;0.80;;;6.00;99.90;;;;;;5089197;28;20637;-70
2023/03/27 00:10:52;;;;;;;0.80;0.60;;;6.00;99.90;;;;;;5070879;28;20444;-70
2023/03/27 00:13:18;;;;;;;0.80;0.77;;;6.00;99.90;;;;;;5088989;28;20556;-69
2023/03/27 00:15:45;;;;;;;1.73;0.80;;;6.00;99.90;;;;;;5089273;28;21253;-70
2023/03/27 00:18:12;;;;;;;0.87;0.73;;;5.90;99.90;;;;;;5087913;28;20416;-70
2023/03/27 00:20:39;;;;;;;2.77;0.63;;;5.90;99.90;;;;;;5089122;28;20859;-70
2023/03/27 00:23:05;;;;;;;0.80;0.50;;;5.90;99.90;;;;;;5089207;28;20412;-69
2023/03/27 00:25:31;;;;;;;1.20;0.73;;;5.90;99.90;;;;;;5089292;28;20416;-69
2023/03/27 00:27:58;;;;;;;2.07;0.70;;;5.90;99.90;;;;;;5089098;28;21158;-69
2023/03/27 00:30:28;;;;;;;1.63;0.80;;;5.90;99.90;;;;;;5089056;28;20479;-69
2023/03/27 00:32:55;;;;;;;1.00;0.40;;;5.80;99.90;;;;;;5089064;28;20986;-69
2023/03/27 00:35:22;;;;;;;0.70;0.50;;;5.80;99.90;;;;;;5089269;28;20451;-69
2023/03/27 00:37:48;;;;;;;0.80;0.63;;;5.80;99.90;;;;;;5089172;28;21255;-69
2023/03/27 00:40:16;;;;;;;0.90;0.50;;;5.80;99.90;;;;;;5087895;28;20404;-69
2023/03/27 00:42:46;;;;;;;0.80;0.60;;;5.90;99.90;;;;;;5089130;28;20186;-70
2023/03/27 00:45:23;;;;;;;1.47;0.70;;;5.80;99.90;;;;;;5092055;28;20461;-69
2023/03/27 00:47:59;;;;;;;0.70;0.50;;;5.90;99.90;;;;;;5092897;28;20412;-69
2023/03/27 00:50:31;;;;;;;0.80;0.73;;;5.90;99.90;;;;;;5092741;28;20431;-69
2023/03/27 00:53:03;;;;;;;1.37;0.70;;;5.90;99.90;;;;;;5092442;28;20543;-69
2023/03/27 00:55:32;;;;;;;0.80;0.60;;;5.90;99.90;;;;;;5092599;28;20408;-69
2023/03/27 00:58:03;;;;;;;1.80;0.80;;;5.80;99.90;;;;;;5090795;28;20416;-70
2023/03/27 01:00:30;;;;;;;1.43;0.50;;;5.90;99.90;;;;;;5092504;28;20515;-69
2023/03/27 01:02:57;;;;;;;1.00;0.70;;;5.80;99.90;;;;;;5092335;28;20427;-70
2023/03/27 01:05:23;;;;;;;0.70;0.50;;;5.80;99.90;;;;;;5090968;28;20202;-70
2023/03/27 01:07:49;;;;;;;0.77;0.53;;;5.80;99.90;;;;;;5090698;28;20417;-70
2023/03/27 01:10:16;;;;;;;0.93;0.53;;;5.90;99.90;;;;;;5092042;28;20419;-70
2023/03/27 01:12:55;;;;;;;1.83;0.50;;;5.80;99.90;;;;;;5090354;28;20468;-70
2023/03/27 01:15:43;;;;;;;0.70;0.57;;;5.80;99.90;;;;;;5091687;28;20446;-69
2023/03/27 01:18:36;;;;;;;0.70;0.47;;;5.80;99.90;;;;;;5090323;28;20419;-69
2023/03/27 01:21:34;;;;;;;0.80;0.70;;;5.80;99.90;;;;;;5089910;28;20485;-69
2023/03/27 01:24:20;;;;;;;0.80;0.50;;;5.70;99.90;;;;;;5045918;28;20424;-70
2023/03/27 01:27:02;;;;;;;1.37;0.70;;;5.70;99.90;;;;;;5091579;28;20448;-70
2023/03/27 01:29:41;;;;;;;0.70;0.50;;;5.70;99.90;;;;;;5091610;28;20767;-70
2023/03/27 01:32:25;;;;;;;0.80;0.67;;;5.50;99.90;;;;;;5091235;28;20460;-70
2023/03/27 01:35:28;;;;;;;0.70;0.60;;;5.40;99.90;;;;;;5091350;28;20775;-69
2023/03/27 01:38:22;;;;;;;0.80;0.77;;;5.40;99.90;;;;;;5090992;28;20447;-69
2023/03/27 01:41:10;;;;;;;4.37;1.03;;;5.40;99.90;;;;;;5091114;28;20206;-69
2023/03/27 01:43:46;;;;;;;1.20;1.10;;;5.40;99.90;;;;;;5091198;28;20541;-69
2023/03/27 01:46:17;;;;;;;0.90;0.90;;;5.30;99.90;;;;;;5089386;28;20454;-70
2023/03/27 01:48:56;;;;;;;1.00;0.90;;;5.20;99.90;;;;;;5090881;28;20416;-70
2023/03/27 01:51:34;;;;;;;0.90;0.70;;;5.20;99.90;;;;;;5090881;28;20443;-69
2023/03/27 01:54:15;;;;;;;1.40;1.20;;;5.30;99.90;;;;;;5090939;28;20419;-69
2023/03/27 01:56:52;;;;;;;1.30;1.20;;;5.20;99.90;;;;;;5089555;28;20432;-69
2023/03/27 01:59:20;;;;;;;1.10;1.00;;;5.20;99.90;;;;;;5089527;28;20416;-69
2023/03/27 02:01:54;;;;;;;1.07;1.07;;;5.10;99.90;;;;;;5090660;28;20461;-69
2023/03/27 02:04:27;;;;;;;0.90;0.77;;;5.00;99.90;;;;;;5091188;28;20471;-70
2023/03/27 02:06:59;;;;;;;1.23;1.13;;;5.00;99.90;;;;;;5091271;28;20443;-71
2023/03/27 02:09:41;;;;;;;0.90;0.85;;;4.90;99.90;;;;;;5091193;28;20253;-70
2023/03/27 02:12:18;;;;;;;1.98;1.33;;;5.00;99.90;;;;;;5090967;28;20251;-69
2023/03/27 02:14:55;;;;;;;1.23;1.13;;;5.00;99.90;;;;;;5091167;28;20188;-69
2023/03/27 02:17:26;;;;;;;1.20;1.10;;;5.00;99.90;;;;;;5090816;28;20505;-70
2023/03/27 02:20:15;;;;;;;1.23;1.13;;;4.90;99.90;;;;;;5090998;28;20419;-70
2023/03/27 02:22:42;;;;;;;0.80;0.80;;;4.80;99.90;;;;;;5090950;28;20463;-69
2023/03/27 02:25:31;;;;;;;2.67;1.17;;;4.70;99.90;;;;;;5089654;28;20953;-69
2023/03/27 02:28:30;;;;;;;1.23;1.13;;;4.50;99.90;;;;;;5090826;28;20194;-68
2023/03/27 02:31:12;;;;;;;2.53;1.50;;;4.50;99.90;;;;;;5090990;28;20844;-70
2023/03/27 02:33:59;;;;;;;1.10;1.00;;;4.50;99.90;;;;;;5091015;28;20551;-68
2023/03/27 02:36:52;;;;;;;1.20;1.10;;;4.40;99.90;;;;;;5091176;28;20306;-68
2023/03/27 02:39:30;;;;;;;1.45;1.35;;;4.40;99.90;;;;;;5091149;28;20242;-68
2023/03/27 02:42:02;;;;;;;1.30;1.20;;;4.30;99.90;;;;;;5090961;28;20204;-69
2023/03/27 02:44:39;;;;;;;1.75;1.65;;;4.30;99.90;;;;;;5090854;28;20195;-69
2023/03/27 02:47:28;;;;;;;1.30;1.20;;;4.20;99.90;;;;;;5090772;28;20174;-69
2023/03/27 02:50:01;;;;;;;5.97;2.80;;;4.30;99.90;;;;;;5075875;28;20262;-69
2023/03/27 02:52:32;;;;;;;5.35;3.47;;;4.20;99.90;;;;;;5090344;28;20212;-69
2023/03/27 02:55:05;;;;;;;9.40;4.45;;;4.20;99.90;;;;;;5088781;28;20265;-69
2023/03/27 02:57:38;;;;;;;8.23;4.40;;;4.10;99.90;;;;;;5090077;28;20282;-69
2023/03/27 03:00:24;;;;;;;8.68;3.58;;;4.00;99.90;;;;;;5088725;28;20935;-69
2023/03/27 03:03:16;;;;;;;10.70;4.50;;;4.00;99.90;;;;;;5089864;28;20233;-69
2023/03/27 03:05:43;;;;;;;6.30;3.90;;;3.90;99.90;;;;;;5089885;28;20179;-69
2023/03/27 03:08:09;;;;;;;16.17;4.60;;;3.90;99.90;;;;;;5089336;28;20265;-69
2023/03/27 03:10:41;;;;;;;7.32;4.43;;;3.90;99.90;;;;;;5089622;28;20203;-69
2023/03/27 03:13:07;;;;;;;15.03;4.47;;;3.80;99.90;;;;;;5088019;28;20297;-69
2023/03/27 03:15:33;;;;;;;8.00;4.80;;;3.80;99.90;;;;;;5089555;28;20447;-69
2023/03/27 03:17:59;;;;;;;13.32;4.63;;;3.70;99.90;;;;;;5089597;28;20225;-69
2023/03/27 03:20:28;;;;;;;10.83;4.27;;;3.70;99.90;;;;;;5087959;28;20228;-69
2023/03/27 03:22:56;;;;;;;13.35;4.57;;;3.70;99.90;;;;;;5089677;28;20210;-69
2023/03/27 03:25:22;;;;;;;12.40;4.88;;;3.60;99.90;;;;;;5071191;28;20216;-70
2023/03/27 03:27:48;;;;;;;12.45;5.32;;;3.70;99.90;;;;;;5089445;28;20241;-69
2023/03/27 03:30:13;;;;;;;9.27;4.87;;;3.70;99.90;;;;;;5089253;28;20192;-69
2023/03/27 03:32:39;;;;;;;11.73;5.00;;;3.70;99.90;;;;;;5089339;28;20591;-69
2023/03/27 03:35:07;;;;;;;8.87;4.80;;;3.70;99.90;;;;;;5087835;28;20563;-69
2023/03/27 03:37:37;;;;;;;11.60;5.18;;;3.70;99.90;;;;;;5089163;28;20184;-69
2023/03/27 03:40:10;;;;;;;9.30;6.18;;;3.60;99.90;;;;;;5089197;28;20195;-69
2023/03/27 03:42:46;;;;;;;14.80;6.97;;;3.50;99.90;;;;;;5087788;28;20168;-69
2023/03/27 03:45:12;;;;;;;23.60;6.95;;;3.50;99.90;;;;;;5089200;28;20184;-69
2023/03/27 03:47:37;;;;;;;25.53;6.80;;;3.50;99.90;;;;;;5087775;28;20192;-69
2023/03/27 03:50:03;;;;;;;18.90;6.67;;;3.40;99.90;;;;;;5089051;28;20192;-69
2023/03/27 03:52:29;;;;;;;18.55;6.75;;;3.40;99.90;;;;;;5088802;28;20308;-69
2023/03/27 03:54:55;;;;;;;10.67;6.10;;;3.40;99.90;;;;;;5089122;28;20221;-70
2023/03/27 03:57:21;;;;;;;10.13;7.33;;;3.40;99.90;;;;;;5070916;28;20196;-69
2023/03/27 03:59:47;;;;;;;12.82;6.20;;;3.40;99.90;;;;;;5087308;28;20194;-69
2023/03/27 04:02:27;;;;;;;14.70;5.82;;;3.40;99.90;;;;;;5088771;28;20333;-70
2023/03/27 04:04:57;;;;;;;18.70;6.35;;;3.40;99.90;;;;;;5088852;28;20183;-69
2023/03/27 04:07:30;;;;;;;16.13;5.60;;;3.40;99.90;;;;;;5088836;28;20614;-69
2023/03/27 04:09:57;;;;;;;20.27;6.20;;;3.30;99.90;;;;;;5088861;28;20189;-70
2023/03/27 04:12:22;;;;;;;18.90;5.10;;;3.20;99.90;;;;;;5087075;28;20577;-70
2023/03/27 04:14:48;;;;;;;18.83;6.37;;;3.10;99.90;;;;;;5087443;28;20230;-68
2023/03/27 04:17:14;;;;;;;19.47;5.03;;;3.10;99.90;;;;;;5088803;28;20180;-68
2023/03/27 04:19:40;;;;;;;20.57;5.80;;;3.20;99.90;;;;;;5087861;28;21116;-69
2023/03/27 04:22:06;;;;;;;11.75;5.22;;;3.20;99.90;;;;;;5088628;28;20264;-69
2023/03/27 04:24:32;;;;;;;25.20;6.33;;;3.10;99.90;;;;;;5088640;28;20179;-69
2023/03/27 04:27:00;;;;;;;15.00;4.70;;;3.10;99.90;;;;;;5088619;28;20451;-69
2023/03/27 04:29:29;;;;;;;13.32;5.45;;;3.10;99.90;;;;;;5088539;28;20179;-69
2023/03/27 04:31:56;;;;;;;32.80;6.57;;;3.20;99.90;;;;;;5070463;28;20219;-69
2023/03/27 04:34:22;;;;;;;17.67;4.93;;;3.20;99.90;;;;;;5089963;28;20177;-69
2023/03/27 04:36:49;;;;;;;20.17;5.45;;;3.20;99.90;;;;;;5087156;28;20188;-69
2023/03/27 04:39:16;;;;;;;16.60;5.20;;;3.30;99.90;;;;;;5087443;28;20645;-69
2023/03/27 04:41:47;;;;;;;17.13;5.03;;;3.20;99.90;;;;;;5087276;28;20205;-69
2023/03/27 04:44:16;;;;;;;11.77;4.47;;;3.20;99.90;;;;;;5071381;28;20627;-69
2023/03/27 04:46:49;;;;;;;17.65;6.20;;;3.20;99.90;;;;;;5088841;28;20203;-70
2023/03/27 04:49:17;;;;;;;25.30;6.60;;;3.20;99.90;;;;;;5087110;28;20184;-69
2023/03/27 04:51:45;;;;;;;16.13;5.80;;;3.20;99.90;;;;;;5088366;28;20538;-70
2023/03/27 04:54:10;;;;;;;14.68;3.90;;;3.20;99.90;;;;;;5088399;28;20187;-70
2023/03/27 04:56:36;;;;;;;14.03;4.90;;;3.10;99.90;;;;;;5088558;28;20188;-70
2023/03/27 04:59:02;;;;;;;14.30;4.80;;;3.10;99.90;;;;;;5087830;28;20648;-70
2023/03/27 05:01:28;;;;;;;22.77;5.28;;;2.90;99.90;;;;;;5085222;28;20625;-70
2023/03/27 05:03:55;;;;;;;17.00;5.88;;;2.90;99.90;;;;;;5087105;28;20191;-70
2023/03/27 05:06:21;;;;;;;13.80;5.03;;;3.00;99.90;;;;;;5085424;28;20207;-70
2023/03/27 05:08:47;;;;;;;18.85;5.65;;;2.80;99.90;;;;;;5087033;28;20177;-71
2023/03/27 05:11:13;;;;;;;16.50;4.47;;;2.90;99.90;;;;;;5086752;28;20293;-70
2023/03/27 05:13:38;;;;;;;12.60;4.67;;;3.00;99.90;;;;;;5086728;28;20211;-70
2023/03/27 05:16:05;;;;;;;17.23;4.40;;;2.90;99.90;;;;;;5087166;28;20666;-70
2023/03/27 05:18:30;;;;;;;9.43;4.35;;;3.00;99.90;;;;;;5086981;28;21075;-70
2023/03/27 05:20:59;;;;;;;15.50;4.60;;;2.80;99.90;;;;;;5086895;28;20210;-70
2023/03/27 05:23:27;;;;;;;11.02;3.88;;;2.70;99.90;;;;;;5086870;28;20191;-70
2023/03/27 05:25:55;;;;;;;10.20;3.40;;;2.60;99.90;;;;;;5085342;28;20188;-70
2023/03/27 05:28:21;;;;;;;17.65;4.22;;;2.50;99.90;;;;;;5087165;28;20267;-70
2023/03/27 05:30:48;;;;;;;12.93;3.83;;;2.40;99.90;;;;;;5088869;28;20210;-70
2023/03/27 05:33:15;;;;;;;19.35;3.60;;;2.40;99.90;;;;;;5090679;28;20221;-70
2023/03/27 05:35:44;;;;;;;13.48;4.25;;;2.30;99.90;;;;;;5090727;28;20258;-70
2023/03/27 05:38:10;;;;;;;7.50;2.88;;;2.20;99.90;;;;;;5090656;28;20235;-70
2023/03/27 05:40:38;;;;;;;13.52;3.90;;;2.30;99.90;;;;;;5090616;28;20275;-70
2023/03/27 05:43:04;;;;;;;16.05;3.47;;;2.30;99.90;;;;;;5090962;28;20546;-70
2023/03/27 05:45:30;;;;;;;25.77;3.50;;;2.30;99.90;;;;;;5091239;28;20617;-70
2023/03/27 05:47:58;;;;;;;17.90;3.63;;;2.20;99.90;;;;;;5091268;28;20662;-70
2023/03/27 05:50:27;;;;;;;13.02;2.80;;;2.20;99.90;;;;;;5090923;28;20202;-70
2023/03/27 05:52:58;;;;;;;11.40;3.20;;;2.20;99.90;;;;;;5090510;28;20569;-70
2023/03/27 05:55:24;;;;;;;15.00;2.60;;;2.10;99.90;;;;;;5088760;28;20678;-70
2023/03/27 05:57:50;;;;;;;16.57;2.80;;;2.10;99.90;;;;;;5090342;28;20211;-70
2023/03/27 06:00:22;;;;;;;14.40;3.15;;;2.00;99.90;;;;;;5088763;28;20409;-70
2023/03/27 06:02:48;;;;;;;17.23;3.30;;;2.00;99.90;;;;;;5090706;28;20183;-71
2023/03/27 06:05:15;;;;;;;24.00;3.33;;;2.00;99.90;;;;;;5090447;28;20209;-70
2023/03/27 06:07:44;;;;;;;19.00;3.22;;;2.00;99.90;;;;;;5090481;28;20195;-70
2023/03/27 06:10:11;;;;;;;7.93;2.55;;;2.00;99.90;;;;;;5090256;28;20187;-71
2023/03/27 06:12:37;;;;;;;7.97;2.65;;;2.00;99.90;;;;;;5090308;28;20249;-72
2023/03/27 06:15:07;;;;;;;11.23;3.23;;;2.00;99.90;;;;;;5089484;28;20999;-71
2023/03/27 06:17:34;;;;;;;8.73;2.42;;;2.00;99.90;;;;;;5090680;28;20195;-71
2023/03/27 06:20:01;;;;;;;10.20;3.08;;;2.00;99.90;;;;;;5090465;28;20182;-71
2023/03/27 06:22:26;;;;;;;9.13;3.00;;;2.00;99.90;;;;;;5090286;28;20208;-70
2023/03/27 06:24:54;;;;;;;11.20;2.43;;;2.00;99.90;;;;;;5090038;28;20602;-70
2023/03/27 06:27:20;;;;;;;12.65;3.03;;;2.00;99.90;;;;;;5089638;28;20243;-70
2023/03/27 06:29:47;;;;;;;16.50;3.40;;;2.00;99.90;;;;;;5090105;28;20191;-70
2023/03/27 06:32:13;;;;;;;14.38;2.10;;;2.00;99.90;;;;;;5088677;28;20219;-70
2023/03/27 06:34:39;;;;;;;6.90;2.42;;;2.00;99.90;;;;;;5090486;28;20214;-70
2023/03/27 06:37:04;;;;;;;9.63;2.67;;;2.00;99.90;;;;;;5090096;28;20214;-70
2023/03/27 06:39:30;;;;;;;14.40;2.57;;;2.00;99.90;;;;;;5090001;28;20182;-70
2023/03/27 06:41:56;;;;;;;14.90;3.00;;;2.00;99.90;;;;;;5089121;28;20261;-70
2023/03/27 06:44:21;;;;;;;5.17;1.80;;;2.10;99.90;;;;;;5088742;28;20211;-70
2023/03/27 06:46:47;;;;;;;10.73;2.30;;;2.10;99.90;;;;;;5088544;28;20420;-70
2023/03/27 06:49:13;;;;;;;10.43;2.00;;;2.10;99.90;;;;;;5089770;28;20179;-70
2023/03/27 06:51:39;;;;;;;8.60;2.80;;;2.10;99.90;;;;;;5088031;28;20778;-70
2023/03/27 06:54:05;;;;;;;7.53;3.90;;;2.00;99.90;;;;;;5088234;28;20286;-70
2023/03/27 06:56:31;;;;;;;11.50;2.17;;;2.00;99.90;;;;;;5089544;28;20416;-69
2023/03/27 06:58:56;;;;;;;13.27;2.60;;;2.00;99.90;;;;;;5089221;28;20659;-71
2023/03/27 07:01:22;;;;;;;7.37;3.20;;;2.00;99.90;;;;;;5088968;28;20203;-69
2023/03/27 07:03:47;;;;;;;9.70;3.37;;;2.00;99.90;;;;;;5087733;28;20500;-70
2023/03/27 07:06:13;;;;;;;11.40;2.13;;;2.00;99.90;;;;;;5088963;28;20192;-69
2023/03/27 07:08:39;;;;;;;11.43;2.50;;;2.00;99.90;;;;;;5070538;28;20183;-69
2023/03/27 07:11:05;;;;;;;5.40;1.77;;;2.00;99.90;;;;;;5086894;28;20264;-69
2023/03/27 07:13:30;;;;;;;17.90;1.97;;;2.00;99.90;;;;;;5088333;28;20254;-69
2023/03/27 07:15:56;;;;;;;11.57;3.23;;;2.00;99.90;;;;;;5088490;28;20427;-70
2023/03/27 07:18:22;;;;;;;13.60;2.40;;;2.00;99.90;;;;;;5088547;28;20187;-70
2023/03/27 07:20:49;;;;;;;10.63;2.40;;;2.00;99.90;;;;;;5088343;28;20201;-69
2023/03/27 07:23:14;;;;;;;11.15;2.75;;;2.00;99.90;;;;;;5088226;28;20512;-70
2023/03/27 07:25:40;;;;;;;16.47;2.23;;;2.00;99.90;;;;;;5088122;28;20274;-70
2023/03/27 07:28:11;;;;;;;12.03;2.97;;;2.00;99.90;;;;;;5088247;28;20172;-70
2023/03/27 07:30:37;;;;;;;10.38;2.00;;;2.00;99.90;;;;;;5086801;28;21311;-69
2023/03/27 07:33:04;;;;;;;12.85;3.35;;;2.00;99.90;;;;;;5087906;28;20213;-69
2023/03/27 07:35:30;;;;;;;8.85;2.15;;;2.00;99.90;;;;;;5088037;28;20325;-69
2023/03/27 07:37:56;;;;;;;6.03;2.23;;;2.00;99.90;;;;;;5087872;28;21010;-70
2023/03/27 07:40:23;;;;;;;13.48;2.50;;;2.10;99.90;;;;;;5087950;28;20435;-69
2023/03/27 07:42:50;;;;;;;11.05;2.75;;;2.30;99.90;;;;;;5088036;28;20297;-69
2023/03/27 07:45:17;;;;;;;14.95;2.63;;;2.20;99.90;;;;;;5086280;28;20191;-70
2023/03/27 07:47:44;;;;;;;4.55;1.60;;;2.20;99.90;;;;;;5088065;28;20206;-69
2023/03/27 07:50:16;;;;;;;11.32;2.70;;;2.30;99.90;;;;;;5087755;28;20610;-69
2023/03/27 07:52:43;;;;;;;9.63;2.72;;;2.30;99.90;;;;;;5086453;28;20203;-69
2023/03/27 07:55:11;;;;;;;9.45;2.80;;;2.40;99.90;;;;;;5087928;28;20229;-69
2023/03/27 07:57:44;;;;;;;10.13;2.35;;;2.50;99.90;;;;;;5087668;28;20195;-69
2023/03/27 08:00:11;;;;;;;7.78;2.17;;;2.50;99.90;;;;;;5086485;28;20259;-70
2023/03/27 08:02:38;;;;;;;7.05;2.20;;;2.50;99.90;;;;;;5088018;28;20194;-69
2023/03/27 08:05:06;;;;;;;14.60;2.15;;;2.40;99.90;;;;;;5088270;28;20544;-69
2023/03/27 08:07:32;;;;;;;17.40;2.80;;;2.40;99.90;;;;;;5086516;28;20199;-69
2023/03/27 08:09:57;;;;;;;6.97;2.47;;;2.40;99.90;;;;;;5087764;28;20186;-69
2023/03/27 08:12:24;;;;;;;5.27;2.33;;;2.30;99.90;;;;;;5085896;28;20232;-69
2023/03/27 08:14:49;;;;;;;16.45;2.72;;;2.30;99.90;;;;;;5087527;28;20199;-69
2023/03/27 08:17:15;;;;;;;12.90;2.60;;;2.30;99.90;;;;;;5086651;28;20589;-69
2023/03/27 08:19:41;;;;;;;19.77;2.30;;;2.40;99.90;;;;;;5088449;28;20186;-70
2023/03/27 08:22:07;;;;;;;10.02;1.75;;;2.50;99.90;;;;;;5087934;28;20694;-70
2023/03/27 08:24:34;;;;;;;8.32;2.50;;;2.40;99.90;;;;;;5087715;28;21035;-70
2023/03/27 08:26:59;;;;;;;9.55;2.42;;;2.40;99.90;;;;;;5087782;28;20255;-70
2023/03/27 08:29:25;;;;;;;11.67;2.30;;;2.40;99.90;;;;;;5087727;28;20998;-70
2023/03/27 08:31:51;;;;;;;13.02;1.98;;;2.50;99.90;;;;;;5087623;28;20206;-69
2023/03/27 08:34:17;;;;;;;7.47;1.90;;;2.50;99.90;;;;;;5087868;28;20208;-69
2023/03/27 08:36:42;;;;;;;5.93;1.80;;;2.40;99.90;;;;;;5088481;28;20174;-71
2023/03/27 08:39:08;;;;;;;10.13;3.27;;;2.40;99.90;;;;;;5088487;28;20240;-70
2023/03/27 08:41:41;;;;;;;6.63;2.03;;;2.40;99.90;;;;;;5087905;28;20213;-69
2023/03/27 08:44:13;;;;;;;12.48;2.50;;;2.50;99.90;;;;;;5087968;28;20254;-69
2023/03/27 08:46:46;;;;;;;8.57;2.20;;;2.50;99.90;;;;;;5088020;28;20320;-70
2023/03/27 08:49:17;;;;;;;5.78;2.50;;;2.80;99.90;;;;;;5086496;28;20267;-70
2023/03/27 08:52:19;;;;;;;7.63;1.95;;;2.80;99.90;;;;;;5087682;28;20698;-70
2023/03/27 08:54:57;;;;;;;15.05;2.75;;;3.00;99.90;;;;;;5086379;28;20195;-69
2023/03/27 08:57:27;;;;;;;13.85;2.40;;;3.40;99.90;;;;;;5087854;28;20253;-70
2023/03/27 08:59:56;;;;;;;2.85;1.42;;;3.70;99.90;;;;;;5069738;28;20188;-69
2023/03/27 09:02:51;;;;;;;9.75;1.80;;;3.90;99.90;;;;;;5087431;28;20578;-70
2023/03/27 09:05:29;;;;;;;7.65;1.77;;;4.00;99.90;;;;;;5089042;28;20464;-69
2023/03/27 09:08:02;;;;;;;9.55;1.85;;;4.00;99.90;;;;;;5091645;28;20189;-69
2023/03/27 09:10:58;;;;;;;7.95;1.77;;;4.30;99.90;;;;;;5091262;28;20195;-70
2023/03/27 09:13:45;;;;;;;7.07;2.00;;;4.60;99.90;;;;;;5091044;28;20216;-69
2023/03/27 09:16:20;;;;;;;9.77;1.90;;;5.10;99.90;;;;;;5091159;28;20184;-69
2023/03/27 09:19:00;;;;;;;6.15;1.45;;;5.40;99.90;;;;;;5090945;28;20233;-69
2023/03/27 09:21:38;;;;;;;9.80;1.90;;;5.90;99.90;;;;;;5090623;28;20278;-69
2023/03/27 09:24:12;;;;;;;12.10;2.10;;;6.40;99.90;;;;;;5089346;28;20217;-69
2023/03/27 09:26:37;;;;;;;7.30;1.80;;;6.60;99.90;;;;;;5090728;28;20187;-69
2023/03/27 09:29:21;;;;;;;12.47;2.30;;;6.40;99.70;;;;;;5090599;28;20434;-70
2023/03/27 09:31:48;;;;;;;4.77;1.47;;;6.00;99.10;;;;;;5090406;28;20943;-70
2023/03/27 09:34:22;;;;;;;7.40;1.80;;;5.70;99.90;;;;;;5090532;28;20428;-69
2023/03/27 09:36:48;;;;;;;3.70;1.33;;;5.90;99.90;;;;;;5090329;28;20405;-69
2023/03/27 09:39:20;;;;;;;7.90;2.17;;;6.60;99.90;;;;;;5090327;28;20489;-69
2023/03/27 09:42:15;;;;;;;7.80;1.47;;;7.10;97.80;;;;;;5090349;28;20846;-69
2023/03/27 09:44:43;;;;;;;6.43;1.70;;;7.60;95.50;;;;;;5088839;28;20507;-69
2023/03/27 09:47:50;;;;;;;5.93;1.70;;;7.40;94.90;;;;;;5090103;28;20427;-69
2023/03/27 09:50:40;;;;;;;6.50;2.03;;;7.10;94.90;;;;;;5007141;28;20943;-69
2023/03/27 09:53:07;;;;;;;10.63;2.20;;;7.10;95.10;;;;;;5089985;28;20551;-69
2023/03/27 09:55:33;;;;;;;3.40;1.13;;;7.30;94.70;;;;;;5088446;28;20779;-69
2023/03/27 09:58:20;;;;;;;16.83;2.00;;;7.70;93.80;;;;;;5088389;28;20417;-69
2023/03/27 10:00:46;;;;;;;7.10;1.87;;;7.50;93.20;;;;;;5090598;28;20965;-69
2023/03/27 10:03:19;;;;;;;6.30;1.73;;;7.30;94.00;;;;;;5071494;28;20424;-69
2023/03/27 10:05:45;;;;;;;3.37;1.37;;;7.50;91.90;;;;;;5090025;28;20408;-70
2023/03/27 10:08:36;;;;;;;8.07;1.60;;;8.50;90.90;;;;;;5089736;28;20951;-69
2023/03/27 10:11:06;;;;;;;9.80;1.90;;;9.30;87.00;;;;;;5089287;28;20435;-69
2023/03/27 10:13:32;;;;;;;7.83;1.90;;;10.20;82.30;;;;;;5089292;28;20496;-69
2023/03/27 10:16:05;;;;;;;5.57;2.53;;;10.40;79.40;;;;;;5089060;28;20436;-69
2023/03/27 10:18:33;;;;;;;8.30;1.90;;;9.50;78.10;;;;;;5089106;28;20412;-70
2023/03/27 10:21:05;;;;;;;3.53;1.73;;;8.60;78.80;;;;;;5089325;28;20428;-69
2023/03/27 10:23:41;;;;;;;10.07;2.03;;;7.60;79.30;;;;;;5089192;28;20921;-70
2023/03/27 10:26:10;;;;;;;7.43;2.10;;;7.20;84.80;;;;;;5089374;28;20423;-69
2023/03/27 10:28:37;;;;;;;8.27;1.77;;;7.20;86.00;;;;;;5089307;28;20427;-69
2023/03/27 10:31:23;;;;;;;3.97;1.23;;;8.50;84.80;;;;;;5089099;28;20436;-70
2023/03/27 10:33:48;;;;;;;8.00;2.30;;;9.10;80.90;;;;;;5089038;28;21038;-70
2023/03/27 10:36:16;;;;;;;5.43;1.33;;;9.60;73.30;;;;;;5089345;28;20408;-69
2023/03/27 10:38:46;;;;;;;6.67;1.50;;;9.70;71.80;;;;;;5088872;28;20194;-70
2023/03/27 10:41:16;;;;;;;5.90;1.60;;;10.70;72.80;;;;;;5088940;28;20804;-70
2023/03/27 10:43:48;;;;;;;2.13;1.10;;;11.10;72.50;;;;;;5087773;28;21036;-70
2023/03/27 10:46:24;;;;;;;3.90;1.40;;;10.50;69.00;;;;;;5089169;28;20417;-70
2023/03/27 10:48:56;;;;;;;6.03;1.53;;;9.40;70.00;;;;;;5088834;28;20430;-70
2023/03/27 10:51:31;;;;;;;4.97;1.20;;;9.10;73.70;;;;;;5088974;28;20440;-70
2023/03/27 10:54:04;;;;;;;4.27;1.50;;;9.10;74.70;;;;;;5088779;28;20466;-71
2023/03/27 10:56:53;;;;;;;5.63;1.37;;;8.80;73.10;;;;;;5088686;28;20398;-70
2023/03/27 10:59:46;;;;;;;4.53;1.30;;;8.10;73.70;;;;;;5048222;28;20424;-71
2023/03/27 11:02:36;;;;;;;5.53;1.70;;;7.70;74.80;;;;;;5088612;28;20936;-70
2023/03/27 11:05:08;;;;;;;3.37;1.30;;;7.40;77.00;;;;;;5088747;28;20405;-69
2023/03/27 11:07:43;;;;;;;3.50;1.40;;;8.40;77.20;;;;;;5088558;28;20435;-69
2023/03/27 11:10:18;;;;;;;6.20;1.17;;;9.20;73.90;;;;;;5088608;28;20826;-70
2023/03/27 11:12:57;;;;;;;6.20;1.20;;;10.00;71.40;;;;;;5088701;28;20454;-69
2023/03/27 11:15:29;;;;;;;8.90;1.53;;;10.50;65.00;;;;;;5088487;28;20757;-69
2023/03/27 11:18:03;;;;;;;8.20;1.63;;;9.80;67.20;;;;;;5088798;28;20826;-69
2023/03/27 11:20:34;;;;;;;6.50;1.20;;;10.30;67.50;;;;;;5088573;28;20521;-68
2023/03/27 11:23:10;;;;;;;3.70;1.57;;;10.20;57.70;;;;;;5088521;28;20795;-69
2023/03/27 11:25:45;;;;;;;4.97;1.23;;;10.40;61.30;;;;;;5088445;28;20420;-69
2023/03/27 11:28:41;;;;;;;2.20;1.00;;;10.00;61.50;;;;;;5088397;28;20423;-69
2023/03/27 11:31:21;;;;;;;8.63;1.23;;;9.30;63.20;;;;;;5088538;28;21064;-69
2023/03/27 11:34:06;;;;;;;6.70;1.40;;;8.50;67.30;;;;;;5088494;28;20459;-70
2023/03/27 11:36:38;;;;;;;6.77;1.47;;;7.70;67.90;;;;;;5089217;28;20840;-69
2023/03/27 11:39:28;;;;;;;5.60;2.60;;;8.20;70.70;;;;;;5088726;28;20436;-70
2023/03/27 11:42:01;;;;;;;8.77;1.70;;;9.00;67.10;;;;;;5088524;28;20443;-70
2023/03/27 11:44:30;;;;;;;4.50;1.10;;;9.30;65.60;;;;;;5088503;28;20417;-70
2023/03/27 11:47:13;;;;;;;2.93;1.30;;;9.00;61.70;;;;;;5088234;28;20444;-70
2023/03/27 11:50:03;;;;;;;4.93;1.10;;;8.50;62.20;;;;;;5087889;28;20457;-69
2023/03/27 11:52:54;;;;;;;4.53;1.30;;;8.10;64.50;;;;;;5087887;28;20460;-69
2023/03/27 11:55:42;;;;;;;8.07;1.10;;;7.80;64.80;;;;;;5088095;28;20497;-69
2023/03/27 11:58:25;;;;;;;7.53;2.47;;;8.00;66.90;;;;;;5087836;28;20447;-69
2023/03/27 12:01:11;;;;;;;5.80;1.50;;;9.20;66.70;;;;;;5087475;28;20454;-69
2023/03/27 12:04:15;;;;;;;1.97;0.90;;;10.60;63.90;;;;;;5086284;28;20420;-70
2023/03/27 12:06:58;;;;;;;5.57;1.03;;;10.40;59.30;;;;;;5087566;28;20420;-70
2023/03/27 12:09:47;;;;;;;6.83;1.43;;;9.50;61.80;;;;;;5087476;28;20520;-70
2023/03/27 12:12:31;;;;;;;7.50;1.50;;;8.60;65.20;;;;;;5087454;28;21017;-70
2023/03/27 12:15:03;;;;;;;4.00;1.10;;;8.10;65.90;;;;;;5087534;28;20784;-70
2023/03/27 12:18:00;;;;;;;6.07;1.33;;;8.80;63.60;;;;;;5087346;28;20964;-70
2023/03/27 12:20:36;;;;;;;3.20;1.00;;;10.30;59.90;;;;;;5081060;28;20456;-69
2023/03/27 12:23:26;;;;;;;8.60;1.47;;;11.50;58.00;;;;;;5087479;28;20916;-70
2023/03/27 12:26:07;;;;;;;7.43;1.23;;;12.10;56.30;;;;;;5087273;28;20417;-70
2023/03/27 12:28:57;;;;;;;2.40;1.10;;;12.50;55.70;;;;;;5085565;28;20424;-70
2023/03/27 12:31:25;;;;;;;12.27;1.20;;;11.60;53.90;;;;;;5087183;28;20555;-69
2023/03/27 12:34:02;;;;;;;7.97;1.13;;;11.30;56.50;;;;;;5087143;28;20522;-69
2023/03/27 12:36:38;;;;;;;2.50;1.00;;;10.30;55.10;;;;;;5087143;28;20413;-69
2023/03/27 12:39:20;;;;;;;1.87;1.00;;;9.90;58.30;;;;;;5087177;28;21081;-70
2023/03/27 12:41:46;;;;;;;4.50;0.83;;;10.60;61.00;;;;;;5090896;28;20428;-70
2023/03/27 12:44:15;;;;;;;6.97;1.00;;;11.10;56.90;;;;;;5091140;28;20423;-69
2023/03/27 12:46:42;;;;;;;4.30;0.90;;;11.10;56.60;;;;;;5091150;28;20513;-69
2023/03/27 12:49:27;;;;;;;7.13;1.27;;;10.80;56.50;;;;;;5091235;28;20952;-69
2023/03/27 12:51:53;;;;;;;4.90;0.90;;;11.30;56.90;;;;;;5048961;28;20448;-70
2023/03/27 12:54:25;;;;;;;3.07;1.33;;;11.70;56.50;;;;;;5091152;28;20411;-69
2023/03/27 12:57:21;;;;;;;7.57;1.10;;;12.00;57.10;;;;;;5091055;28;20186;-70
2023/03/27 13:00:00;;;;;;;7.50;1.63;;;12.50;56.60;;;;;;5091168;28;20414;-70
2023/03/27 13:03:01;;;;;;;4.53;1.10;;;12.60;54.90;;;;;;5090887;28;20441;-70
2023/03/27 13:05:45;;;;;;;4.73;1.37;;;12.90;53.10;;;;;;5090993;28;20415;-70
2023/03/27 13:08:36;;;;;;;1.30;0.80;;;12.70;51.30;;;;;;5089223;28;20453;-70
2023/03/27 13:11:13;;;;;;;7.60;2.10;;;12.60;52.80;;;;;;5091134;28;20531;-70
2023/03/27 13:14:03;;;;;;;2.80;1.70;;;12.90;54.00;;;;;;5090736;28;20462;-69
2023/03/27 13:16:50;;;;;;;4.70;1.07;;;12.90;51.80;;;;;;5090974;28;20459;-70
2023/03/27 13:19:32;;;;;;;4.30;0.80;;;12.50;50.10;;;;;;5091034;28;20405;-70
2023/03/27 13:22:32;;;;;;;7.40;1.70;;;12.40;52.40;;;;;;5090724;28;20789;-70